Nomaste — WDH9382 — position and weather

sailwx.info

Track history (hours):
 
Tides and Currents Weather Stations Pressure Air Temp Water Temp Dewpoint Dewpoint Depression Visibility Wind Speed Wind Dir Waves Ship Positions

Nomaste

Owner: Schroff Jr, Robert W, Edmonds, WA. More information available from US FCC via Universal Licensing System and Coast Guard Vessel Documentation Center.

Last reported at 2018-Mar-20 01:28 UTC. Time now 2018-Apr-25 00:50 UTC.
Position N 47°22' W 122°29'.
Warning: this ship's position is 35 days out of date.

Length 15 m.

Type: Pleasure craft. MMSI: 367302140.

Date/timePositionNaut miles runAvg speedWind from/ knotsBaromVisibWave heightAir tempDewpointWater temp
2018-Mar-20 01:28N 47°22' W 122°29'1 0.8
2018-Mar-20 00:26N 47°23' W 122°28'7 0.2
2018-Mar-18 20:36N 47°29' W 122°30'1 9.0
2018-Mar-18 20:30N 47°30' W 122°30'6 9.5
2018-Mar-18 19:55N 47°35' W 122°28'5 9.1
2018-Mar-18 19:20N 47°40' W 122°26'2 4.7
2018-Mar-18 19:00N 47°40' W 122°24'0 0.8
2018-Mar-18 18:30N 47°40' W 122°23'7 6.2
2018-Mar-18 17:21N 47°39' W 122°13'0 0.0
2018-Mar-17 20:53N 47°39' W 122°13'0 0.1
2018-Mar-17 18:53N 47°40' W 122°13'0 0.4
2018-Mar-17 18:27N 47°39' W 122°13'6 0.3
2018-Mar-17 00:18N 47°39' W 122°21'2 6.1
2018-Mar-16 23:59N 47°40' W 122°23'1 1.5
2018-Mar-16 23:30N 47°40' W 122°24'1 1.2
2018-Mar-16 22:59N 47°41' W 122°24'0 0.0
2018-Mar-16 22:17N 47°41' W 122°24'0 1.7
2018-Mar-16 22:00N 47°41' W 122°25'7 0.3
2018-Mar-16 00:19N 47°34' W 122°29'3 8.8
2018-Mar-15 23:59N 47°31' W 122°30'  
Track history (hours):
 
Tides and Currents Weather Stations Pressure Air Temp Water Temp Dewpoint Dewpoint Depression Visibility Wind Speed Wind Dir Waves Ship Positions

Nomaste

Owner: Schroff Jr, Robert W, Edmonds, WA. More information available from US FCC via Universal Licensing System and Coast Guard Vessel Documentation Center.

Last reported at 2018-Mar-20 01:28 UTC. Time now 2018-Apr-25 00:50 UTC.
Position N 47°22' W 122°29'.
Warning: this ship's position is 35 days out of date.

Length 15 m.

Type: Pleasure craft. MMSI: 367302140.

Date/timePositionNaut miles runAvg speedWind from/ knotsBaromVisibWave heightAir tempDewpointWater temp
2018-Mar-20 01:28N 47°22' W 122°29'1 0.8
2018-Mar-20 00:26N 47°23' W 122°28'7 0.2
2018-Mar-18 20:36N 47°29' W 122°30'1 9.0
2018-Mar-18 20:30N 47°30' W 122°30'6 9.5
2018-Mar-18 19:55N 47°35' W 122°28'5 9.1
2018-Mar-18 19:20N 47°40' W 122°26'2 4.7
2018-Mar-18 19:00N 47°40' W 122°24'0 0.8
2018-Mar-18 18:30N 47°40' W 122°23'7 6.2
2018-Mar-18 17:21N 47°39' W 122°13'0 0.0
2018-Mar-17 20:53N 47°39' W 122°13'0 0.1
2018-Mar-17 18:53N 47°40' W 122°13'0 0.4
2018-Mar-17 18:27N 47°39' W 122°13'6 0.3
2018-Mar-17 00:18N 47°39' W 122°21'2 6.1
2018-Mar-16 23:59N 47°40' W 122°23'1 1.5
2018-Mar-16 23:30N 47°40' W 122°24'1 1.2
2018-Mar-16 22:59N 47°41' W 122°24'0 0.0
2018-Mar-16 22:17N 47°41' W 122°24'0 1.7
2018-Mar-16 22:00N 47°41' W 122°25'7 0.3
2018-Mar-16 00:19N 47°34' W 122°29'3 8.8
2018-Mar-15 23:59N 47°31' W 122°30'  

Dump ship's entire track history